< Typhoon 200103 2001 Season Typhoon 200105 >
Typhoon 200104 (UTOR)
General InformationTrack Information on Google MapsDetailed Wind InformationList of All Images || NewsDisaster Info.ResourceGoogle EarthGE AnimationAtom FeedGeoJSON
Detalied Best Track (Time Zone = UTC)
Year Month Day Hour Lat. Long. Pressure (hPa) Wind (kt) Class Image Chart
2001 7 1 06 7.0 137.3 998 0 2 Image Chart
2001 7 1 12 7.9 137.9 996 0 2 Image Chart
2001 7 1 18 8.8 137.7 992 0 2 Image Chart
2001 7 2 00 10.6 137.0 990 35 3 Image Chart
2001 7 2 06 11.6 136.1 990 35 3 Image Chart
2001 7 2 12 12.8 134.8 990 40 3 Image Chart
2001 7 2 18 13.8 133.0 985 45 3 Image Chart
2001 7 3 00 14.5 131.3 980 45 3 Image Chart
2001 7 3 06 15.8 129.7 970 55 4 Image Chart
2001 7 3 12 16.9 128.0 970 55 4 Image Chart
2001 7 3 18 17.6 126.1 965 60 4 Image Chart
2001 7 4 00 18.3 124.3 965 60 4 Image Chart
2001 7 4 06 18.9 122.0 960 60 4 Image Chart
2001 7 4 12 19.3 120.4 965 60 4 Image Chart
2001 7 4 18 19.9 119.9 965 60 4 Image Chart
2001 7 5 00 20.4 118.7 965 60 4 Image Chart
2001 7 5 06 20.7 117.6 965 60 4 Image Chart
2001 7 5 12 21.0 116.7 965 55 4 Image Chart
2001 7 5 18 21.9 115.7 970 50 4 Image Chart
2001 7 6 00 22.9 114.5 975 45 3 Image Chart
2001 7 6 06 23.1 113.4 983 35 3 Image Chart
2001 7 6 12 23.1 112.1 986 0 2 Image Chart
2001 7 6 18 23.3 111.1 990 0 2 Image Chart
2001 7 7 00 23.7 110.0 992 0 2 Image Chart
Japan Meteorological Agency Best Track Data | Correction Date : 2002-01-24
< Typhoon 200103 2001 Season Typhoon 200105 >

Help